createdAt,value
2018-06-27T00:00:01.937Z,11.91
2018-06-27T00:02:30.865Z,11.89
2018-06-27T00:04:59.471Z,11.88
2018-06-27T00:07:28.438Z,11.85
2018-06-27T00:09:56.991Z,11.80
2018-06-27T00:12:25.966Z,11.77
2018-06-27T00:14:54.833Z,11.81
2018-06-27T00:17:23.464Z,11.81
2018-06-27T00:19:52.191Z,11.76
2018-06-27T00:22:20.944Z,11.73
2018-06-27T00:24:50.251Z,11.66
2018-06-27T00:27:19.001Z,11.64
2018-06-27T00:29:47.695Z,11.61
2018-06-27T00:32:17.160Z,11.60
2018-06-27T00:34:45.741Z,11.59
2018-06-27T00:37:15.147Z,11.53
2018-06-27T00:39:43.769Z,11.43
2018-06-27T00:42:12.712Z,11.38
2018-06-27T00:44:41.485Z,11.32
2018-06-27T00:47:10.243Z,11.28
2018-06-27T00:49:39.380Z,11.31
2018-06-27T00:52:08.628Z,11.35
2018-06-27T00:54:37.986Z,11.26
2018-06-27T00:57:07.862Z,11.22
2018-06-27T00:59:36.416Z,11.16
2018-06-27T01:02:05.072Z,11.13
2018-06-27T01:04:33.825Z,11.08
2018-06-27T01:07:02.374Z,11.05
2018-06-27T01:09:31.685Z,11.04
2018-06-27T01:12:00.481Z,11.01
2018-06-27T01:14:30.014Z,11.03
2018-06-27T01:16:58.866Z,10.98
2018-06-27T01:19:27.582Z,10.97
2018-06-27T01:21:56.755Z,10.91
2018-06-27T01:24:25.559Z,10.85
2018-06-27T01:26:54.216Z,10.86
2018-06-27T01:29:23.067Z,10.90
2018-06-27T01:31:51.772Z,10.85
2018-06-27T01:34:20.542Z,10.78
2018-06-27T01:36:49.163Z,10.74
2018-06-27T01:39:18.470Z,10.70
2018-06-27T01:41:47.290Z,10.68
2018-06-27T01:44:15.972Z,10.69
2018-06-27T01:46:44.715Z,10.67
2018-06-27T01:49:13.437Z,10.64
2018-06-27T01:51:42.183Z,10.60
2018-06-27T01:54:11.480Z,10.51
2018-06-27T01:56:40.282Z,10.47
2018-06-27T01:59:08.892Z,10.50
2018-06-27T02:01:37.564Z,10.44
2018-06-27T02:04:06.346Z,10.46
2018-06-27T02:06:35.047Z,10.45
2018-06-27T02:09:04.038Z,10.41
2018-06-27T02:11:32.932Z,10.39
2018-06-27T02:14:01.596Z,10.35
2018-06-27T02:16:30.207Z,10.32
2018-06-27T02:18:59.697Z,10.29
2018-06-27T02:21:29.036Z,10.22
2018-06-27T02:23:57.816Z,10.18
2018-06-27T02:26:26.522Z,10.16
2018-06-27T02:28:55.401Z,10.14
2018-06-27T02:31:24.080Z,10.12
2018-06-27T02:33:53.227Z,10.16
2018-06-27T02:36:21.756Z,10.09
2018-06-27T02:38:50.487Z,10.07
2018-06-27T02:41:19.446Z,10.06
2018-06-27T02:43:48.154Z,10.06
2018-06-27T02:46:16.999Z,10.06
2018-06-27T02:48:46.209Z,10.04
2018-06-27T02:51:15.396Z,10.04
2018-06-27T02:53:44.162Z,10.02
2018-06-27T02:56:13.071Z,9.97
2018-06-27T02:58:41.696Z,9.92
2018-06-27T03:01:10.685Z,9.90
2018-06-27T03:03:39.938Z,9.88
2018-06-27T03:06:08.695Z,9.88
2018-06-27T03:08:37.411Z,9.83
2018-06-27T03:11:06.527Z,9.81
2018-06-27T03:13:35.427Z,9.81
2018-06-27T03:16:04.032Z,9.79
2018-06-27T03:18:33.293Z,9.77
2018-06-27T03:21:02.083Z,9.74
2018-06-27T03:23:30.735Z,9.71
2018-06-27T03:25:59.410Z,9.66
2018-06-27T03:28:28.193Z,9.64
2018-06-27T03:30:57.083Z,9.64
2018-06-27T03:33:25.677Z,9.65
2018-06-27T03:35:54.536Z,9.67
2018-06-27T03:38:23.856Z,9.67
2018-06-27T03:40:52.507Z,9.61
2018-06-27T03:43:21.711Z,9.64
2018-06-27T03:45:50.443Z,9.65
2018-06-27T03:48:20.156Z,9.64
2018-06-27T03:50:49.499Z,9.62
2018-06-27T03:53:18.619Z,9.62
2018-06-27T03:55:47.731Z,9.66
2018-06-27T03:58:17.097Z,9.71
2018-06-27T04:00:46.054Z,9.81
2018-06-27T04:03:15.562Z,9.88
2018-06-27T04:05:44.218Z,9.90
2018-06-27T04:08:12.859Z,9.92
2018-06-27T04:10:41.921Z,10.08
2018-06-27T04:13:10.776Z,10.17
2018-06-27T04:15:39.447Z,10.23
2018-06-27T04:18:16.718Z,10.28
2018-06-27T04:20:45.536Z,10.38
2018-06-27T04:23:14.198Z,10.52
2018-06-27T04:25:42.908Z,10.70
2018-06-27T04:28:12.459Z,10.81
2018-06-27T04:30:42.701Z,10.92
2018-06-27T04:33:11.890Z,11.09
2018-06-27T04:35:40.796Z,11.20
2018-06-27T04:38:09.559Z,11.31
2018-06-27T04:40:38.302Z,11.40
2018-06-27T04:43:07.191Z,11.51
2018-06-27T04:45:36.086Z,11.64
2018-06-27T04:48:05.214Z,11.84
2018-06-27T04:50:33.945Z,11.97
2018-06-27T04:53:02.612Z,12.17
2018-06-27T04:55:31.603Z,12.39
2018-06-27T04:58:00.289Z,12.52
2018-06-27T05:00:29.096Z,12.65
2018-06-27T05:02:57.850Z,12.79
2018-06-27T05:05:26.795Z,12.97
2018-06-27T05:07:56.587Z,13.10
2018-06-27T05:10:25.427Z,13.27
2018-06-27T05:12:54.247Z,13.41
2018-06-27T05:15:23.061Z,13.53
2018-06-27T05:17:51.982Z,13.72
2018-06-27T05:20:20.876Z,13.78
2018-06-27T05:22:49.624Z,14.02
2018-06-27T05:25:18.451Z,14.18
2018-06-27T05:27:47.068Z,14.44
2018-06-27T05:30:15.957Z,14.57
2018-06-27T05:32:44.613Z,15.11
2018-06-27T05:35:13.610Z,15.86
2018-06-27T05:37:42.233Z,16.49
2018-06-27T05:43:13.902Z,17.83
2018-06-27T05:45:42.693Z,18.09
2018-06-27T05:48:11.640Z,18.20
2018-06-27T05:50:41.122Z,18.11
2018-06-27T05:53:10.004Z,18.76
2018-06-27T05:55:39.554Z,19.50
2018-06-27T05:58:08.346Z,20.16
2018-06-27T06:00:37.167Z,20.71
2018-06-27T06:03:06.331Z,20.95
2018-06-27T06:05:35.157Z,20.17
2018-06-27T06:08:04.397Z,20.26
2018-06-27T06:10:33.824Z,20.72
2018-06-27T06:13:03.308Z,21.46
2018-06-27T06:15:31.999Z,21.92
2018-06-27T06:18:00.672Z,22.55
2018-06-27T06:20:29.804Z,23.19
2018-06-27T06:22:58.675Z,23.75
2018-06-27T06:25:27.425Z,24.18
2018-06-27T06:27:56.813Z,24.51
2018-06-27T06:30:25.849Z,23.74
2018-06-27T06:32:55.177Z,23.10
2018-06-27T06:35:23.882Z,22.44
2018-06-27T06:37:52.516Z,21.46
2018-06-27T06:40:22.292Z,21.19
2018-06-27T06:42:51.052Z,21.46
2018-06-27T06:45:20.138Z,21.35
2018-06-27T06:47:49.068Z,21.61
2018-06-27T06:50:17.791Z,22.06
2018-06-27T06:52:47.178Z,21.75
2018-06-27T06:55:16.672Z,21.72
2018-06-27T06:57:45.339Z,20.93
2018-06-27T07:00:14.382Z,21.11
2018-06-27T07:02:43.117Z,21.10
2018-06-27T07:05:11.985Z,21.58
2018-06-27T07:07:40.669Z,22.29
2018-06-27T07:10:09.444Z,23.12
2018-06-27T07:12:38.551Z,22.81
2018-06-27T07:15:08.112Z,23.92
2018-06-27T07:17:37.202Z,23.84
2018-06-27T07:20:05.952Z,23.38
2018-06-27T07:22:34.534Z,24.28
2018-06-27T07:25:03.513Z,26.17
2018-06-27T07:27:32.158Z,27.70
2018-06-27T07:30:01.080Z,28.50
2018-06-27T07:32:29.752Z,29.24
2018-06-27T07:34:58.679Z,29.56
2018-06-27T07:37:27.549Z,29.71
2018-06-27T07:39:56.204Z,29.94
2018-06-27T07:42:25.447Z,30.86
2018-06-27T07:44:54.210Z,30.41
2018-06-27T07:47:22.933Z,31.11
2018-06-27T07:49:52.291Z,31.97
2018-06-27T07:52:20.958Z,32.38
2018-06-27T07:54:49.685Z,32.11
2018-06-27T07:57:18.790Z,32.81
2018-06-27T07:59:47.785Z,33.03
2018-06-27T08:02:16.444Z,32.67
2018-06-27T08:04:45.599Z,32.43
2018-06-27T08:07:14.854Z,32.59
2018-06-27T08:09:43.519Z,32.78
2018-06-27T08:12:12.185Z,33.01
2018-06-27T08:14:41.045Z,32.53
2018-06-27T08:17:10.579Z,32.30
2018-06-27T08:19:39.184Z,33.39
2018-06-27T08:22:08.090Z,33.62
2018-06-27T08:24:37.380Z,34.06
2018-06-27T08:27:07.430Z,34.13
2018-06-27T08:29:36.336Z,34.40
2018-06-27T08:32:05.018Z,35.27
2018-06-27T08:34:33.986Z,35.11
2018-06-27T08:37:02.719Z,35.58
2018-06-27T08:39:31.705Z,35.40
2018-06-27T08:42:00.528Z,35.04
2018-06-27T08:44:30.144Z,34.99
2018-06-27T08:46:58.768Z,35.14
2018-06-27T08:49:27.600Z,36.08
2018-06-27T08:51:56.376Z,36.36
2018-06-27T08:54:25.209Z,36.24
2018-06-27T08:56:54.148Z,36.67
2018-06-27T08:59:22.923Z,36.70
2018-06-27T09:01:51.794Z,37.85
2018-06-27T09:04:20.575Z,38.00
2018-06-27T09:06:49.160Z,36.63
2018-06-27T09:09:18.102Z,36.13
2018-06-27T09:11:46.825Z,34.37
2018-06-27T09:14:15.543Z,32.65
2018-06-27T09:16:45.188Z,31.27
2018-06-27T09:19:13.990Z,30.32
2018-06-27T09:21:42.600Z,29.99
2018-06-27T09:24:11.731Z,29.89
2018-06-27T09:26:40.639Z,31.97
2018-06-27T09:29:09.210Z,33.60
2018-06-27T09:31:37.944Z,32.93
2018-06-27T09:34:06.834Z,32.26
2018-06-27T09:36:35.925Z,32.16
2018-06-27T09:39:08.305Z,33.57
2018-06-27T09:41:37.169Z,33.78
2018-06-27T09:44:06.749Z,34.32
2018-06-27T09:46:36.319Z,35.83
2018-06-27T09:49:05.041Z,37.11
2018-06-27T09:51:34.435Z,35.96
2018-06-27T09:54:03.324Z,35.00
2018-06-27T09:56:32.775Z,34.04
2018-06-27T09:59:02.016Z,33.30
2018-06-27T10:01:31.455Z,34.30
2018-06-27T10:04:00.341Z,35.67
2018-06-27T10:06:29.227Z,34.24
2018-06-27T10:08:57.846Z,32.81
2018-06-27T10:11:26.685Z,32.97
2018-06-27T10:13:57.411Z,34.55
2018-06-27T10:16:26.065Z,37.08
2018-06-27T10:18:54.851Z,39.03
2018-06-27T10:21:23.519Z,39.19
2018-06-27T10:23:52.248Z,38.88
2018-06-27T10:26:21.660Z,39.96
2018-06-27T10:28:50.635Z,39.93
2018-06-27T10:31:19.508Z,38.37
2018-06-27T10:33:48.244Z,36.85
2018-06-27T10:36:18.079Z,38.30
2018-06-27T10:38:46.812Z,40.18
2018-06-27T10:41:15.404Z,41.43
2018-06-27T10:43:43.963Z,42.26
2018-06-27T10:46:12.864Z,43.63
2018-06-27T10:48:41.431Z,42.78
2018-06-27T10:51:10.348Z,41.06
2018-06-27T10:53:38.888Z,40.16
2018-06-27T10:56:07.512Z,39.59
2018-06-27T10:58:36.406Z,37.53
2018-06-27T11:01:05.600Z,35.24
2018-06-27T11:03:34.351Z,35.16
2018-06-27T11:06:03.107Z,34.41
2018-06-27T11:08:31.840Z,34.12
2018-06-27T11:11:00.609Z,35.87
2018-06-27T11:13:29.816Z,38.17
2018-06-27T11:15:58.629Z,37.28
2018-06-27T11:18:27.885Z,35.49
2018-06-27T11:20:56.580Z,33.97
2018-06-27T11:23:25.923Z,32.51
2018-06-27T11:25:54.896Z,31.42
2018-06-27T11:28:24.122Z,30.27
2018-06-27T11:30:52.990Z,29.93
2018-06-27T11:33:21.680Z,29.18
2018-06-27T11:35:50.479Z,28.90
2018-06-27T11:38:19.560Z,28.99
2018-06-27T11:40:48.320Z,29.02
2018-06-27T11:43:17.182Z,30.35
2018-06-27T11:45:45.870Z,32.48
2018-06-27T11:48:14.641Z,34.65
2018-06-27T11:50:44.197Z,35.52
2018-06-27T11:53:12.921Z,35.48
2018-06-27T11:55:41.704Z,34.35
2018-06-27T11:58:11.152Z,34.30
2018-06-27T12:00:40.099Z,34.92
2018-06-27T12:03:08.977Z,35.47
2018-06-27T12:05:37.653Z,35.33
2018-06-27T12:08:07.065Z,36.32
2018-06-27T12:10:35.985Z,36.50
2018-06-27T12:13:04.821Z,35.39
2018-06-27T12:15:33.620Z,33.87
2018-06-27T12:18:02.636Z,32.53
2018-06-27T12:20:31.646Z,31.99
2018-06-27T12:23:00.415Z,32.14
2018-06-27T12:25:29.316Z,33.53
2018-06-27T12:27:58.661Z,33.82
2018-06-27T12:30:28.038Z,34.63
2018-06-27T12:32:57.762Z,35.10
2018-06-27T12:35:26.424Z,34.08
2018-06-27T12:37:55.191Z,32.83
2018-06-27T12:40:23.815Z,32.48
2018-06-27T12:42:53.117Z,31.79
2018-06-27T12:45:21.829Z,31.66
2018-06-27T12:47:50.521Z,31.22
2018-06-27T12:50:20.084Z,30.65
2018-06-27T12:52:48.824Z,30.38
2018-06-27T12:55:17.495Z,30.29
2018-06-27T12:57:46.404Z,29.40
2018-06-27T13:00:15.269Z,29.62
2018-06-27T13:02:43.881Z,29.73
2018-06-27T13:05:12.727Z,29.27
2018-06-27T13:07:41.519Z,28.51
2018-06-27T13:10:10.630Z,28.28
2018-06-27T13:12:39.410Z,28.56
2018-06-27T13:15:08.260Z,29.02
2018-06-27T13:17:37.040Z,29.22
2018-06-27T13:20:06.109Z,29.32
2018-06-27T13:22:34.787Z,29.70
2018-06-27T13:25:03.561Z,29.32
2018-06-27T13:27:32.222Z,28.73
2018-06-27T13:30:00.844Z,28.59
2018-06-27T13:32:29.507Z,28.59
2018-06-27T13:34:59.035Z,28.76
2018-06-27T13:37:27.762Z,28.53
2018-06-27T13:39:56.477Z,28.33
2018-06-27T13:42:25.216Z,28.11
2018-06-27T13:44:53.917Z,27.95
2018-06-27T13:47:22.541Z,27.70
2018-06-27T13:49:51.265Z,28.01
2018-06-27T13:52:20.436Z,28.55
2018-06-27T13:54:55.941Z,28.91
2018-06-27T13:57:26.065Z,29.25
2018-06-27T13:59:55.282Z,29.26
2018-06-27T14:02:24.101Z,28.77
2018-06-27T14:04:53.022Z,28.76
2018-06-27T14:07:22.779Z,28.32
2018-06-27T14:09:51.791Z,27.70
2018-06-27T14:12:20.747Z,27.31
2018-06-27T14:14:49.576Z,26.74
2018-06-27T14:17:18.871Z,26.58
2018-06-27T14:19:47.680Z,26.97
2018-06-27T14:22:17.247Z,27.40
2018-06-27T14:24:46.244Z,27.55
2018-06-27T14:27:15.356Z,27.52
2018-06-27T14:29:44.174Z,27.23
2018-06-27T14:32:12.959Z,27.00
2018-06-27T14:34:42.330Z,26.51
2018-06-27T14:37:11.854Z,26.40
2018-06-27T14:39:40.639Z,26.20
2018-06-27T14:42:09.451Z,26.01
2018-06-27T14:44:38.180Z,26.24
2018-06-27T14:47:07.247Z,26.22
2018-06-27T14:49:36.478Z,26.23
2018-06-27T14:52:05.262Z,26.22
2018-06-27T14:54:34.396Z,26.21
2018-06-27T14:57:03.165Z,26.12
2018-06-27T14:59:32.416Z,26.12
2018-06-27T15:02:00.987Z,26.20
2018-06-27T15:04:29.940Z,26.12
2018-06-27T15:06:59.307Z,26.06
2018-06-27T15:09:28.359Z,26.11
2018-06-27T15:11:57.475Z,26.13
2018-06-27T15:14:26.467Z,26.29
2018-06-27T15:16:55.221Z,26.26
2018-06-27T15:19:24.179Z,26.26
2018-06-27T15:21:53.277Z,26.28
2018-06-27T15:24:21.960Z,25.90
2018-06-27T15:26:50.857Z,25.91
2018-06-27T15:29:19.741Z,25.99
2018-06-27T15:31:48.666Z,26.06
2018-06-27T15:34:17.606Z,25.93
2018-06-27T15:36:46.404Z,25.79
2018-06-27T15:39:15.108Z,25.66
2018-06-27T15:41:44.245Z,25.74
2018-06-27T15:44:13.348Z,25.92
2018-06-27T15:46:42.078Z,26.06
2018-06-27T15:49:11.177Z,26.11
2018-06-27T15:51:41.120Z,26.06
2018-06-27T15:54:10.713Z,25.98
2018-06-27T15:56:39.460Z,25.98
2018-06-27T15:59:08.900Z,25.96
2018-06-27T16:01:37.702Z,25.87
2018-06-27T16:04:06.448Z,25.76
2018-06-27T16:06:35.181Z,25.83
2018-06-27T16:09:04.668Z,25.84
2018-06-27T16:11:33.675Z,25.75
2018-06-27T16:14:03.252Z,25.67
2018-06-27T16:16:32.012Z,25.59
2018-06-27T16:19:01.842Z,25.48
2018-06-27T16:21:30.695Z,25.41
2018-06-27T16:23:59.652Z,25.31
2018-06-27T16:26:28.376Z,25.22
2018-06-27T16:28:57.222Z,25.10
2018-06-27T16:31:26.725Z,25.02
2018-06-27T16:33:55.688Z,24.98
2018-06-27T16:36:24.265Z,24.91
2018-06-27T16:38:53.257Z,24.83
2018-06-27T16:41:21.998Z,24.78
2018-06-27T16:43:50.950Z,24.76
2018-06-27T16:46:20.089Z,24.76
2018-06-27T16:48:49.026Z,24.87
2018-06-27T16:51:18.288Z,25.10
2018-06-27T16:53:47.296Z,25.25
2018-06-27T16:56:15.957Z,25.37
2018-06-27T16:58:45.247Z,25.49
2018-06-27T17:01:14.419Z,25.49
2018-06-27T17:03:43.372Z,25.57
2018-06-27T17:06:12.952Z,25.83
2018-06-27T17:08:41.838Z,26.06
2018-06-27T17:11:10.987Z,26.36
2018-06-27T17:13:39.832Z,26.43
2018-06-27T17:16:09.106Z,26.52
2018-06-27T17:18:38.218Z,26.47
2018-06-27T17:21:07.280Z,26.38
2018-06-27T17:23:36.579Z,26.27
2018-06-27T17:26:05.665Z,26.30
2018-06-27T17:28:34.402Z,26.21
2018-06-27T17:31:03.518Z,26.37
2018-06-27T17:33:32.442Z,26.64
2018-06-27T17:36:01.487Z,27.05
2018-06-27T17:38:30.531Z,27.31
2018-06-27T17:41:00.068Z,27.22
2018-06-27T17:43:28.992Z,26.63
2018-06-27T17:45:57.983Z,25.99
2018-06-27T17:48:26.923Z,25.46
2018-06-27T17:50:56.080Z,25.16
2018-06-27T17:53:25.171Z,24.76
2018-06-27T17:55:54.101Z,24.42
2018-06-27T17:58:22.928Z,24.24
2018-06-27T18:00:52.124Z,24.00
2018-06-27T18:03:21.178Z,23.85
2018-06-27T18:05:50.196Z,23.70
2018-06-27T18:08:19.412Z,23.61
2018-06-27T18:10:49.153Z,23.48
2018-06-27T18:13:18.023Z,23.43
2018-06-27T18:15:47.227Z,23.32
2018-06-27T18:18:16.096Z,23.20
2018-06-27T18:20:44.928Z,23.05
2018-06-27T18:23:14.331Z,22.89
2018-06-27T18:25:43.189Z,22.80
2018-06-27T18:28:12.023Z,22.68
2018-06-27T18:30:41.756Z,22.58
2018-06-27T18:33:11.002Z,22.47
2018-06-27T18:35:40.760Z,22.34
2018-06-27T18:38:09.950Z,22.25
2018-06-27T18:40:39.638Z,22.17
2018-06-27T18:43:09.021Z,22.09
2018-06-27T18:45:38.242Z,22.01
2018-06-27T18:48:07.783Z,21.87
2018-06-27T18:50:37.356Z,21.67
2018-06-27T18:53:06.746Z,21.56
2018-06-27T18:55:36.529Z,21.48
2018-06-27T18:58:06.031Z,21.57
2018-06-27T19:00:35.448Z,21.58
2018-06-27T19:03:04.895Z,21.55
2018-06-27T19:05:33.947Z,21.57
2018-06-27T19:08:03.396Z,21.52
2018-06-27T19:10:33.756Z,21.47
2018-06-27T19:13:02.977Z,21.48
2018-06-27T19:15:32.252Z,21.45
2018-06-27T19:18:01.588Z,21.44
2018-06-27T19:20:31.007Z,21.38
2018-06-27T19:23:00.153Z,21.35
2018-06-27T19:25:29.229Z,21.30
2018-06-27T19:27:58.517Z,21.26
2018-06-27T19:30:27.996Z,21.22
2018-06-27T19:32:57.889Z,21.12
2018-06-27T19:35:27.344Z,21.05
2018-06-27T19:37:56.526Z,20.96
2018-06-27T19:40:25.887Z,20.81
2018-06-27T19:42:55.119Z,20.70
2018-06-27T19:45:24.643Z,20.55
2018-06-27T19:47:54.011Z,20.42
2018-06-27T19:50:23.462Z,20.25
2018-06-27T19:52:52.838Z,20.14
2018-06-27T19:55:22.417Z,20.03
2018-06-27T19:57:51.683Z,19.94
2018-06-27T20:00:20.799Z,19.78
2018-06-27T20:02:50.188Z,19.72
2018-06-27T20:05:20.189Z,19.57
2018-06-27T20:07:49.717Z,19.41
2018-06-27T20:10:19.523Z,19.23
2018-06-27T20:12:48.745Z,19.09
2018-06-27T20:15:18.089Z,19.06
2018-06-27T20:17:47.241Z,19.04
2018-06-27T20:20:16.891Z,19.00
2018-06-27T20:22:46.384Z,18.98
2018-06-27T20:25:15.783Z,18.93
2018-06-27T20:27:45.341Z,18.84
2018-06-27T20:30:16.126Z,18.77
2018-06-27T20:32:45.695Z,18.71
2018-06-27T20:35:15.788Z,18.67
2018-06-27T20:37:44.956Z,18.63
2018-06-27T20:40:14.387Z,18.57
2018-06-27T20:42:44.234Z,18.57
2018-06-27T20:45:13.436Z,18.51
2018-06-27T20:47:42.741Z,18.40
2018-06-27T20:50:12.032Z,18.33
2018-06-27T20:52:41.926Z,18.22
2018-06-27T20:55:11.169Z,18.17
2018-06-27T20:57:40.429Z,18.22
2018-06-27T21:00:09.737Z,18.15
2018-06-27T21:02:38.962Z,18.09
2018-06-27T21:05:08.217Z,17.96
2018-06-27T21:07:37.373Z,17.84
2018-06-27T21:10:06.747Z,17.73
2018-06-27T21:12:36.042Z,17.59
2018-06-27T21:15:06.006Z,17.47
2018-06-27T21:17:35.430Z,17.31
2018-06-27T21:20:04.181Z,17.22
2018-06-27T21:22:33.047Z,17.11
2018-06-27T21:25:01.913Z,17.03
2018-06-27T21:27:31.053Z,16.93
2018-06-27T21:30:00.112Z,16.78
2018-06-27T21:32:29.672Z,16.65
2018-06-27T21:34:58.638Z,16.57
2018-06-27T21:37:27.798Z,16.52
2018-06-27T21:39:57.232Z,16.47
2018-06-27T21:42:25.932Z,16.35
2018-06-27T21:44:55.461Z,16.21
2018-06-27T21:47:24.199Z,16.19
2018-06-27T21:49:53.029Z,16.12
2018-06-27T21:52:22.441Z,16.12
2018-06-27T21:54:51.187Z,16.07
2018-06-27T21:57:19.827Z,15.94
2018-06-27T21:59:48.886Z,15.86
2018-06-27T22:02:17.713Z,15.82
2018-06-27T22:04:46.538Z,15.66
2018-06-27T22:07:15.500Z,15.51
2018-06-27T22:09:44.971Z,15.41
2018-06-27T22:12:14.017Z,15.35
2018-06-27T22:14:42.887Z,15.35
2018-06-27T22:17:12.399Z,15.26
2018-06-27T22:19:41.183Z,15.17
2018-06-27T22:22:09.889Z,15.18
2018-06-27T22:24:38.535Z,15.09
2018-06-27T22:27:07.423Z,14.98
2018-06-27T22:29:36.603Z,14.95
2018-06-27T22:32:06.097Z,14.72
2018-06-27T22:34:35.002Z,14.64
2018-06-27T22:37:04.373Z,14.52
2018-06-27T22:39:33.212Z,14.40
2018-06-27T22:42:02.786Z,14.42
2018-06-27T22:44:31.589Z,14.38
2018-06-27T22:47:01.167Z,14.30
2018-06-27T22:49:30.042Z,14.25
2018-06-27T22:51:58.883Z,14.17
2018-06-27T22:54:27.891Z,14.17
2018-06-27T22:56:58.917Z,14.00
2018-06-27T22:59:28.174Z,13.82
2018-06-27T23:01:57.457Z,13.69
2018-06-27T23:04:26.667Z,13.54
2018-06-27T23:06:55.323Z,13.53
2018-06-27T23:09:24.133Z,13.53
2018-06-27T23:11:53.484Z,13.51
2018-06-27T23:14:22.478Z,13.36
2018-06-27T23:16:51.465Z,13.37
2018-06-27T23:19:21.093Z,13.31
2018-06-27T23:21:49.658Z,13.14
2018-06-27T23:24:18.497Z,13.03
2018-06-27T23:26:47.709Z,13.05
2018-06-27T23:29:16.662Z,13.01
2018-06-27T23:31:45.502Z,12.92
2018-06-27T23:34:15.353Z,12.92
2018-06-27T23:36:44.802Z,12.78
2018-06-27T23:39:15.112Z,12.66
2018-06-27T23:41:44.227Z,12.67
2018-06-27T23:44:13.202Z,12.56
2018-06-27T23:46:42.118Z,12.59
2018-06-27T23:49:11.682Z,12.58
2018-06-27T23:51:41.143Z,12.58
2018-06-27T23:54:10.169Z,12.52
2018-06-27T23:56:38.733Z,12.51
2018-06-27T23:59:07.411Z,12.48
